sensor_id;sensor_type;location;lat;lon;timestamp;pressure;altitude;pressure_sealevel;temperature;humidity
62694;BME280;48759;52.544;13.418;2023-04-21T00:01:04;101421.94;;;6.34;100.00
62694;BME280;48759;52.544;13.418;2023-04-21T00:03:33;101413.13;;;6.14;100.00
62694;BME280;48759;52.544;13.418;2023-04-21T00:06:04;101421.47;;;6.12;100.00
62694;BME280;48759;52.544;13.418;2023-04-21T00:08:31;101418.59;;;6.14;100.00
62694;BME280;48759;52.544;13.418;2023-04-21T00:10:58;101414.00;;;6.14;100.00
62694;BME280;48759;52.544;13.418;2023-04-21T00:13:26;101419.59;;;6.13;100.00
62694;BME280;48759;52.544;13.418;2023-04-21T00:15:54;101412.13;;;6.15;100.00
62694;BME280;48759;52.544;13.418;2023-04-21T00:18:23;101416.31;;;6.09;100.00
62694;BME280;48759;52.544;13.418;2023-04-21T00:20:53;101413.22;;;6.04;100.00
62694;BME280;48759;52.544;13.418;2023-04-21T00:23:22;101410.75;;;5.93;100.00
62694;BME280;48759;52.544;13.418;2023-04-21T00:25:50;101410.75;;;5.93;100.00
62694;BME280;48759;52.544;13.418;2023-04-21T00:28:16;101414.75;;;5.81;100.00
62694;BME280;48759;52.544;13.418;2023-04-21T00:30:43;101411.47;;;5.77;100.00
62694;BME280;48759;52.544;13.418;2023-04-21T00:33:16;101408.16;;;5.66;100.00
62694;BME280;48759;52.544;13.418;2023-04-21T00:35:46;101406.44;;;5.65;100.00
62694;BME280;48759;52.544;13.418;2023-04-21T00:38:13;101406.44;;;5.65;100.00
62694;BME280;48759;52.544;13.418;2023-04-21T00:40:41;101413.31;;;5.69;100.00
62694;BME280;48759;52.544;13.418;2023-04-21T00:43:08;101409.66;;;5.60;100.00
62694;BME280;48759;52.544;13.418;2023-04-21T00:45:36;101403.47;;;5.58;100.00
62694;BME280;48759;52.544;13.418;2023-04-21T00:48:03;101400.19;;;5.55;100.00
62694;BME280;48759;52.544;13.418;2023-04-21T00:50:32;101398.16;;;5.57;100.00
62694;BME280;48759;52.544;13.418;2023-04-21T00:53:01;101402.53;;;5.50;100.00
62694;BME280;48759;52.544;13.418;2023-04-21T00:55:28;101392.41;;;5.60;100.00
62694;BME280;48759;52.544;13.418;2023-04-21T00:57:57;101390.19;;;5.63;100.00
62694;BME280;48759;52.544;13.418;2023-04-21T01:00:26;101388.97;;;5.58;100.00
62694;BME280;48759;52.544;13.418;2023-04-21T01:02:55;101399.03;;;5.57;100.00
62694;BME280;48759;52.544;13.418;2023-04-21T01:05:24;101384.97;;;5.70;100.00
62694;BME280;48759;52.544;13.418;2023-04-21T01:07:51;101388.09;;;5.75;100.00
62694;BME280;48759;52.544;13.418;2023-04-21T01:10:20;101390.06;;;5.65;100.00
62694;BME280;48759;52.544;13.418;2023-04-21T01:12:47;101382.22;;;5.70;100.00
62694;BME280;48759;52.544;13.418;2023-04-21T01:15:16;101388.19;;;5.65;100.00
62694;BME280;48759;52.544;13.418;2023-04-21T01:17:43;101386.00;;;5.69;100.00
62694;BME280;48759;52.544;13.418;2023-04-21T01:20:12;101385.28;;;5.67;100.00
62694;BME280;48759;52.544;13.418;2023-04-21T01:22:53;101383.66;;;5.56;100.00
62694;BME280;48759;52.544;13.418;2023-04-21T01:25:23;101389.34;;;5.63;100.00
62694;BME280;48759;52.544;13.418;2023-04-21T01:27:53;101383.81;;;5.55;100.00
62694;BME280;48759;52.544;13.418;2023-04-21T01:30:20;101382.44;;;5.51;100.00
62694;BME280;48759;52.544;13.418;2023-04-21T01:32:50;101381.34;;;5.44;100.00
62694;BME280;48759;52.544;13.418;2023-04-21T01:35:17;101388.53;;;5.45;100.00
62694;BME280;48759;52.544;13.418;2023-04-21T01:37:46;101382.72;;;5.48;100.00
62694;BME280;48759;52.544;13.418;2023-04-21T01:40:13;101378.22;;;5.38;100.00
62694;BME280;48759;52.544;13.418;2023-04-21T01:42:41;101378.06;;;5.40;100.00
62694;BME280;48759;52.544;13.418;2023-04-21T01:45:09;101372.28;;;5.43;100.00
62694;BME280;48759;52.544;13.418;2023-04-21T01:47:37;101375.19;;;5.42;100.00
62694;BME280;48759;52.544;13.418;2023-04-21T01:50:04;101379.41;;;5.36;100.00
62694;BME280;48759;52.544;13.418;2023-04-21T01:52:32;101373.78;;;5.37;100.00
62694;BME280;48759;52.544;13.418;2023-04-21T01:55:00;101376.19;;;5.41;100.00
62694;BME280;48759;52.544;13.418;2023-04-21T01:57:27;101370.19;;;5.37;100.00
62694;BME280;48759;52.544;13.418;2023-04-21T01:59:55;101361.22;;;5.27;100.00
62694;BME280;48759;52.544;13.418;2023-04-21T02:02:22;101366.19;;;5.31;100.00
62694;BME280;48759;52.544;13.418;2023-04-21T02:04:48;101367.41;;;5.29;100.00
62694;BME280;48759;52.544;13.418;2023-04-21T02:07:15;101362.72;;;5.21;100.00
62694;BME280;48759;52.544;13.418;2023-04-21T02:09:43;101353.25;;;5.33;100.00
62694;BME280;48759;52.544;13.418;2023-04-21T02:12:12;101361.75;;;5.48;100.00
62694;BME280;48759;52.544;13.418;2023-04-21T02:14:41;101358.78;;;5.42;100.00
62694;BME280;48759;52.544;13.418;2023-04-21T02:17:07;101364.41;;;5.40;100.00
62694;BME280;48759;52.544;13.418;2023-04-21T02:19:35;101361.31;;;5.35;100.00
62694;BME280;48759;52.544;13.418;2023-04-21T02:22:04;101357.63;;;5.44;100.00
62694;BME280;48759;52.544;13.418;2023-04-21T02:24:32;101355.75;;;5.45;100.00
62694;BME280;48759;52.544;13.418;2023-04-21T02:27:00;101346.38;;;5.47;100.00
62694;BME280;48759;52.544;13.418;2023-04-21T02:29:30;101347.66;;;5.35;100.00
62694;BME280;48759;52.544;13.418;2023-04-21T02:31:58;101350.38;;;5.35;100.00
62694;BME280;48759;52.544;13.418;2023-04-21T02:34:25;101348.25;;;5.47;100.00
62694;BME280;48759;52.544;13.418;2023-04-21T02:36:53;101347.50;;;5.36;100.00
62694;BME280;48759;52.544;13.418;2023-04-21T02:39:21;101355.75;;;5.45;100.00
62694;BME280;48759;52.544;13.418;2023-04-21T02:41:48;101355.28;;;5.31;100.00
62694;BME280;48759;52.544;13.418;2023-04-21T02:44:15;101353.34;;;5.24;100.00
62694;BME280;48759;52.544;13.418;2023-04-21T02:46:43;101356.78;;;5.26;100.00
62694;BME280;48759;52.544;13.418;2023-04-21T02:49:10;101349.66;;;5.15;100.00
62694;BME280;48759;52.544;13.418;2023-04-21T02:51:38;101352.22;;;5.17;100.00
62694;BME280;48759;52.544;13.418;2023-04-21T02:54:07;101355.91;;;5.25;100.00
62694;BME280;48759;52.544;13.418;2023-04-21T02:56:35;101352.19;;;5.26;100.00
62694;BME280;48759;52.544;13.418;2023-04-21T02:59:02;101347.25;;;5.30;100.00
62694;BME280;48759;52.544;13.418;2023-04-21T03:01:31;101352.09;;;5.36;100.00
62694;BME280;48759;52.544;13.418;2023-04-21T03:03:59;101349.31;;;5.28;100.00
62694;BME280;48759;52.544;13.418;2023-04-21T03:06:27;101351.88;;;5.29;100.00
62694;BME280;48759;52.544;13.418;2023-04-21T03:08:55;101347.97;;;5.32;100.00
62694;BME280;48759;52.544;13.418;2023-04-21T03:11:21;101348.53;;;5.18;100.00
62694;BME280;48759;52.544;13.418;2023-04-21T03:13:50;101341.91;;;5.20;100.00
62694;BME280;48759;52.544;13.418;2023-04-21T03:16:17;101343.63;;;5.21;100.00
62694;BME280;48759;52.544;13.418;2023-04-21T03:18:44;101348.63;;;5.16;100.00
62694;BME280;48759;52.544;13.418;2023-04-21T03:21:14;101344.59;;;5.02;100.00
62694;BME280;48759;52.544;13.418;2023-04-21T03:23:41;101337.19;;;4.95;100.00
62694;BME280;48759;52.544;13.418;2023-04-21T03:26:09;101350.44;;;4.90;100.00
62694;BME280;48759;52.544;13.418;2023-04-21T03:28:36;101345.81;;;4.90;100.00
62694;BME280;48759;52.544;13.418;2023-04-21T03:31:05;101349.47;;;4.99;100.00
62694;BME280;48759;52.544;13.418;2023-04-21T03:33:32;101348.63;;;4.98;100.00
62694;BME280;48759;52.544;13.418;2023-04-21T03:36:01;101346.06;;;4.97;100.00
62694;BME280;48759;52.544;13.418;2023-04-21T03:38:29;101349.31;;;4.83;100.00
62694;BME280;48759;52.544;13.418;2023-04-21T03:40:57;101345.28;;;4.87;100.00
62694;BME280;48759;52.544;13.418;2023-04-21T03:43:24;101348.38;;;4.92;100.00
62694;BME280;48759;52.544;13.418;2023-04-21T03:45:50;101348.78;;;4.79;100.00
62694;BME280;48759;52.544;13.418;2023-04-21T03:48:17;101347.19;;;4.77;100.00
62694;BME280;48759;52.544;13.418;2023-04-21T03:50:45;101350.25;;;4.74;100.00
62694;BME280;48759;52.544;13.418;2023-04-21T03:53:12;101345.38;;;4.68;100.00
62694;BME280;48759;52.544;13.418;2023-04-21T03:55:56;101345.72;;;4.65;100.00
62694;BME280;48759;52.544;13.418;2023-04-21T03:58:24;101350.31;;;4.64;100.00
62694;BME280;48759;52.544;13.418;2023-04-21T04:00:50;101346.00;;;4.61;100.00
62694;BME280;48759;52.544;13.418;2023-04-21T04:03:17;101351.69;;;4.68;100.00
62694;BME280;48759;52.544;13.418;2023-04-21T04:05:46;101352.25;;;4.72;100.00
62694;BME280;48759;52.544;13.418;2023-04-21T04:08:14;101353.28;;;4.71;100.00
62694;BME280;48759;52.544;13.418;2023-04-21T04:10:42;101358.44;;;4.74;100.00
62694;BME280;48759;52.544;13.418;2023-04-21T04:13:10;101345.91;;;4.81;100.00
62694;BME280;48759;52.544;13.418;2023-04-21T04:15:37;101354.00;;;4.73;100.00
62694;BME280;48759;52.544;13.418;2023-04-21T04:18:04;101355.28;;;4.69;100.00
62694;BME280;48759;52.544;13.418;2023-04-21T04:20:32;101354.28;;;4.70;100.00
62694;BME280;48759;52.544;13.418;2023-04-21T04:22:59;101356.38;;;4.76;100.00
62694;BME280;48759;52.544;13.418;2023-04-21T04:25:26;101357.34;;;4.84;100.00
62694;BME280;48759;52.544;13.418;2023-04-21T04:27:53;101361.25;;;4.82;100.00
62694;BME280;48759;52.544;13.418;2023-04-21T04:30:21;101352.44;;;4.88;100.00
62694;BME280;48759;52.544;13.418;2023-04-21T04:32:53;101367.09;;;4.87;100.00
62694;BME280;48759;52.544;13.418;2023-04-21T04:35:22;101365.06;;;4.89;100.00
62694;BME280;48759;52.544;13.418;2023-04-21T04:37:50;101366.81;;;4.90;100.00
62694;BME280;48759;52.544;13.418;2023-04-21T04:40:17;101371.94;;;4.93;100.00
62694;BME280;48759;52.544;13.418;2023-04-21T04:42:44;101371.78;;;4.94;100.00
62694;BME280;48759;52.544;13.418;2023-04-21T04:45:13;101363.47;;;5.14;100.00
62694;BME280;48759;52.544;13.418;2023-04-21T04:47:42;101368.34;;;5.10;100.00
62694;BME280;48759;52.544;13.418;2023-04-21T04:50:10;101355.00;;;5.07;100.00
62694;BME280;48759;52.544;13.418;2023-04-21T04:52:38;101373.19;;;5.16;100.00
62694;BME280;48759;52.544;13.418;2023-04-21T04:55:09;101368.31;;;5.20;100.00
62694;BME280;48759;52.544;13.418;2023-04-21T04:57:44;101365.19;;;5.32;100.00
62694;BME280;48759;52.544;13.418;2023-04-21T05:00:12;101366.84;;;5.25;100.00
62694;BME280;48759;52.544;13.418;2023-04-21T05:02:40;101371.50;;;5.33;100.00
62694;BME280;48759;52.544;13.418;2023-04-21T05:05:22;101381.66;;;5.41;100.00
62694;BME280;48759;52.544;13.418;2023-04-21T05:07:51;101378.75;;;5.42;100.00
62694;BME280;48759;52.544;13.418;2023-04-21T05:10:18;101383.44;;;5.50;100.00
62694;BME280;48759;52.544;13.418;2023-04-21T05:12:49;101376.31;;;5.57;100.00
62694;BME280;48759;52.544;13.418;2023-04-21T05:15:16;101371.88;;;5.56;100.00
62694;BME280;48759;52.544;13.418;2023-04-21T05:17:45;101376.88;;;5.60;100.00
62694;BME280;48759;52.544;13.418;2023-04-21T05:20:14;101378.47;;;5.71;100.00
62694;BME280;48759;52.544;13.418;2023-04-21T05:22:42;101378.19;;;5.74;100.00
62694;BME280;48759;52.544;13.418;2023-04-21T05:25:12;101381.28;;;5.79;100.00
62694;BME280;48759;52.544;13.418;2023-04-21T05:27:40;101381.41;;;5.95;100.00
62694;BME280;48759;52.544;13.418;2023-04-21T05:30:07;101371.75;;;6.09;100.00
62694;BME280;48759;52.544;13.418;2023-04-21T05:32:34;101382.16;;;6.05;100.00
62694;BME280;48759;52.544;13.418;2023-04-21T05:35:02;101382.97;;;6.24;100.00
62694;BME280;48759;52.544;13.418;2023-04-21T05:37:30;101375.81;;;6.31;100.00
62694;BME280;48759;52.544;13.418;2023-04-21T05:39:57;101380.63;;;6.37;100.00
62694;BME280;48759;52.544;13.418;2023-04-21T05:42:24;101376.53;;;6.41;100.00
62694;BME280;48759;52.544;13.418;2023-04-21T05:44:53;101373.84;;;6.49;100.00
62694;BME280;48759;52.544;13.418;2023-04-21T05:47:19;101381.09;;;6.66;100.00
62694;BME280;48759;52.544;13.418;2023-04-21T05:49:53;101375.47;;;6.68;100.00
62694;BME280;48759;52.544;13.418;2023-04-21T05:52:20;101377.34;;;6.67;100.00
62694;BME280;48759;52.544;13.418;2023-04-21T05:54:48;101375.03;;;6.88;100.00
62694;BME280;48759;52.544;13.418;2023-04-21T05:57:15;101376.03;;;6.79;100.00
62694;BME280;48759;52.544;13.418;2023-04-21T05:59:43;101374.88;;;6.90;100.00
62694;BME280;48759;52.544;13.418;2023-04-21T06:02:10;101374.34;;;6.78;100.00
62694;BME280;48759;52.544;13.418;2023-04-21T06:04:38;101375.59;;;6.92;100.00
62694;BME280;48759;52.544;13.418;2023-04-21T06:07:04;101366.38;;;7.01;100.00
62694;BME280;48759;52.544;13.418;2023-04-21T06:09:32;101365.53;;;7.09;100.00
62694;BME280;48759;52.544;13.418;2023-04-21T06:12:01;101370.00;;;7.26;100.00
62694;BME280;48759;52.544;13.418;2023-04-21T06:14:28;101360.75;;;7.35;100.00
62694;BME280;48759;52.544;13.418;2023-04-21T06:16:57;101367.94;;;7.36;100.00
62694;BME280;48759;52.544;13.418;2023-04-21T06:19:26;101364.88;;;7.47;100.00
62694;BME280;48759;52.544;13.418;2023-04-21T06:21:55;101362.84;;;7.49;100.00
62694;BME280;48759;52.544;13.418;2023-04-21T06:24:22;101367.97;;;7.52;100.00
62694;BME280;48759;52.544;13.418;2023-04-21T06:26:50;101362.16;;;7.72;100.00
62694;BME280;48759;52.544;13.418;2023-04-21T06:29:20;101365.75;;;7.72;100.00
62694;BME280;48759;52.544;13.418;2023-04-21T06:32:11;101362.63;;;7.75;100.00
62694;BME280;48759;52.544;13.418;2023-04-21T06:34:38;101355.78;;;7.87;100.00
62694;BME280;48759;52.544;13.418;2023-04-21T06:37:05;101353.19;;;8.02;100.00
62694;BME280;48759;52.544;13.418;2023-04-21T06:39:35;101359.19;;;8.14;100.00
62694;BME280;48759;52.544;13.418;2023-04-21T06:42:02;101349.22;;;8.21;100.00
62694;BME280;48759;52.544;13.418;2023-04-21T06:44:31;101350.56;;;8.33;100.00
62694;BME280;48759;52.544;13.418;2023-04-21T06:47:00;101355.88;;;8.34;100.00
62694;BME280;48759;52.544;13.418;2023-04-21T06:49:30;101350.22;;;8.36;100.00
62694;BME280;48759;52.544;13.418;2023-04-21T06:52:04;101343.81;;;8.52;100.00
62694;BME280;48759;52.544;13.418;2023-04-21T06:54:31;101349.59;;;8.65;100.00
62694;BME280;48759;52.544;13.418;2023-04-21T06:56:58;101347.16;;;8.70;100.00
62694;BME280;48759;52.544;13.418;2023-04-21T06:59:25;101345.38;;;8.77;100.00
62694;BME280;48759;52.544;13.418;2023-04-21T07:01:53;101349.13;;;8.84;100.00
62694;BME280;48759;52.544;13.418;2023-04-21T07:04:20;101347.91;;;8.87;100.00
62694;BME280;48759;52.544;13.418;2023-04-21T07:06:47;101349.13;;;8.84;100.00
62694;BME280;48759;52.544;13.418;2023-04-21T07:09:14;101342.19;;;8.96;100.00
62694;BME280;48759;52.544;13.418;2023-04-21T07:11:42;101341.72;;;9.15;100.00
62694;BME280;48759;52.544;13.418;2023-04-21T07:14:09;101338.56;;;9.27;100.00
62694;BME280;48759;52.544;13.418;2023-04-21T07:16:35;101344.72;;;9.29;100.00
62694;BME280;48759;52.544;13.418;2023-04-21T07:19:06;101337.09;;;9.39;100.00
62694;BME280;48759;52.544;13.418;2023-04-21T07:21:35;101334.38;;;9.39;100.00
62694;BME280;48759;52.544;13.418;2023-04-21T07:24:05;101349.31;;;9.59;100.00
62694;BME280;48759;52.544;13.418;2023-04-21T07:26:34;101336.81;;;9.56;100.00
62694;BME280;48759;52.544;13.418;2023-04-21T07:29:01;101338.88;;;9.77;100.00
62694;BME280;48759;52.544;13.418;2023-04-21T07:31:29;101339.06;;;9.90;100.00
62694;BME280;48759;52.544;13.418;2023-04-21T07:33:56;101334.00;;;9.79;100.00
62694;BME280;48759;52.544;13.418;2023-04-21T07:36:25;101343.22;;;9.86;100.00
62694;BME280;48759;52.544;13.418;2023-04-21T07:38:53;101333.47;;;9.98;100.00
62694;BME280;48759;52.544;13.418;2023-04-21T07:41:21;101337.00;;;9.92;100.00
62694;BME280;48759;52.544;13.418;2023-04-21T07:43:58;101336.72;;;10.17;100.00
62694;BME280;48759;52.544;13.418;2023-04-21T07:47:26;101335.88;;;10.16;100.00
62694;BME280;48759;52.544;13.418;2023-04-21T07:49:49;101343.44;;;10.44;100.00
62694;BME280;48759;52.544;13.418;2023-04-21T07:52:18;101335.88;;;10.46;100.00
62694;BME280;48759;52.544;13.418;2023-04-21T07:54:45;101339.19;;;10.70;100.00
62694;BME280;48759;52.544;13.418;2023-04-21T07:57:19;101333.69;;;10.70;100.00
62694;BME280;48759;52.544;13.418;2023-04-21T07:59:49;101340.69;;;10.88;100.00
62694;BME280;48759;52.544;13.418;2023-04-21T08:02:16;101341.63;;;10.95;100.00
62694;BME280;48759;52.544;13.418;2023-04-21T08:04:43;101336.84;;;10.89;100.00
62694;BME280;48759;52.544;13.418;2023-04-21T08:07:10;101336.47;;;10.92;100.00
62694;BME280;48759;52.544;13.418;2023-04-21T08:09:41;101331.59;;;11.08;100.00
62694;BME280;48759;52.544;13.418;2023-04-21T08:12:09;101339.31;;;11.20;100.00
62694;BME280;48759;52.544;13.418;2023-04-21T08:14:48;101339.47;;;11.33;100.00
62694;BME280;48759;52.544;13.418;2023-04-21T08:17:16;101338.22;;;11.35;100.00
62694;BME280;48759;52.544;13.418;2023-04-21T08:19:48;101337.28;;;11.28;100.00
62694;BME280;48759;52.544;13.418;2023-04-21T08:25:07;101335.16;;;11.66;100.00
62694;BME280;48759;52.544;13.418;2023-04-21T08:27:37;101324.72;;;11.62;100.00
62694;BME280;48759;52.544;13.418;2023-04-21T08:30:09;101333.09;;;11.75;100.00
62694;BME280;48759;52.544;13.418;2023-04-21T08:32:37;101333.38;;;11.80;100.00
62694;BME280;48759;52.544;13.418;2023-04-21T08:35:11;101326.50;;;11.97;100.00
62694;BME280;48759;52.544;13.418;2023-04-21T08:37:43;101331.09;;;11.90;100.00
62694;BME280;48759;52.544;13.418;2023-04-21T08:40:15;101319.72;;;12.00;100.00
62694;BME280;48759;52.544;13.418;2023-04-21T08:42:44;101323.16;;;12.08;100.00
62694;BME280;48759;52.544;13.418;2023-04-21T08:45:32;101318.09;;;12.12;100.00
62694;BME280;48759;52.544;13.418;2023-04-21T08:48:04;101316.94;;;12.27;100.00
62694;BME280;48759;52.544;13.418;2023-04-21T08:50:48;101322.34;;;12.49;100.00
62694;BME280;48759;52.544;13.418;2023-04-21T08:53:20;101321.69;;;12.47;100.00
62694;BME280;48759;52.544;13.418;2023-04-21T08:55:51;101328.81;;;12.62;100.00
62694;BME280;48759;52.544;13.418;2023-04-21T08:58:19;101314.16;;;12.69;100.00
62694;BME280;48759;52.544;13.418;2023-04-21T09:00:47;101327.81;;;12.77;100.00
62694;BME280;48759;52.544;13.418;2023-04-21T09:03:21;101323.19;;;12.90;100.00
62694;BME280;48759;52.544;13.418;2023-04-21T09:05:56;101323.03;;;12.98;100.00
62694;BME280;48759;52.544;13.418;2023-04-21T09:08:23;101330.47;;;13.05;100.00
62694;BME280;48759;52.544;13.418;2023-04-21T09:10:56;101320.69;;;13.09;100.00
62694;BME280;48759;52.544;13.418;2023-04-21T09:13:28;101317.31;;;13.20;100.00
62694;BME280;48759;52.544;13.418;2023-04-21T09:15:57;101321.34;;;13.24;100.00
62694;BME280;48759;52.544;13.418;2023-04-21T09:18:25;101320.34;;;13.31;100.00
62694;BME280;48759;52.544;13.418;2023-04-21T09:21:05;101323.75;;;13.53;100.00
62694;BME280;48759;52.544;13.418;2023-04-21T09:23:42;101322.06;;;13.52;100.00
62694;BME280;48759;52.544;13.418;2023-04-21T09:26:11;101320.34;;;13.45;100.00
62694;BME280;48759;52.544;13.418;2023-04-21T09:28:43;101325.06;;;13.70;100.00
62694;BME280;48759;52.544;13.418;2023-04-21T09:31:14;101313.81;;;13.78;100.00
62694;BME280;48759;52.544;13.418;2023-04-21T09:33:46;101322.94;;;13.86;100.00
62694;BME280;48759;52.544;13.418;2023-04-21T09:36:17;101316.31;;;14.06;100.00
62694;BME280;48759;52.544;13.418;2023-04-21T09:38:49;101320.97;;;14.12;100.00
62694;BME280;48759;52.544;13.418;2023-04-21T09:41:19;101314.81;;;14.17;100.00
62694;BME280;48759;52.544;13.418;2023-04-21T09:43:50;101314.31;;;14.40;100.00
62694;BME280;48759;52.544;13.418;2023-04-21T09:46:17;101300.47;;;14.40;96.09
62694;BME280;48759;52.544;13.418;2023-04-21T09:48:47;101307.56;;;14.16;97.17
62694;BME280;48759;52.544;13.418;2023-04-21T09:51:16;101312.41;;;14.34;97.56
62694;BME280;48759;52.544;13.418;2023-04-21T09:53:44;101300.06;;;14.30;98.50
62694;BME280;48759;52.544;13.418;2023-04-21T09:56:12;101296.44;;;14.36;97.90
62694;BME280;48759;52.544;13.418;2023-04-21T09:58:45;101295.13;;;14.51;95.83
62694;BME280;48759;52.544;13.418;2023-04-21T10:01:16;101304.06;;;14.53;96.19
62694;BME280;48759;52.544;13.418;2023-04-21T10:03:48;101309.63;;;14.53;99.61
62694;BME280;48759;52.544;13.418;2023-04-21T10:06:16;101296.38;;;14.62;98.91
62694;BME280;48759;52.544;13.418;2023-04-21T10:08:43;101304.84;;;14.74;96.20
62694;BME280;48759;52.544;13.418;2023-04-21T10:11:12;101300.97;;;14.88;100.00
62694;BME280;48759;52.544;13.418;2023-04-21T10:13:45;101299.06;;;15.20;100.00
62694;BME280;48759;52.544;13.418;2023-04-21T10:16:17;101299.38;;;15.37;89.52
62694;BME280;48759;52.544;13.418;2023-04-21T10:18:45;101290.34;;;15.48;79.05
62694;BME280;48759;52.544;13.418;2023-04-21T10:21:18;101292.63;;;15.26;75.17
62694;BME280;48759;52.544;13.418;2023-04-21T10:23:47;101281.47;;;15.33;73.87
62694;BME280;48759;52.544;13.418;2023-04-21T10:26:18;101279.88;;;15.50;74.98
62694;BME280;48759;52.544;13.418;2023-04-21T10:28:58;101277.97;;;15.50;71.18
62694;BME280;48759;52.544;13.418;2023-04-21T10:31:30;101282.25;;;15.71;69.19
62694;BME280;48759;52.544;13.418;2023-04-21T10:34:18;101270.44;;;15.57;66.38
62694;BME280;48759;52.544;13.418;2023-04-21T10:36:50;101279.88;;;15.75;65.65
62694;BME280;48759;52.544;13.418;2023-04-21T10:39:35;101280.75;;;15.75;67.95
62694;BME280;48759;52.544;13.418;2023-04-21T10:42:45;101271.38;;;15.69;65.05
62694;BME280;48759;52.544;13.418;2023-04-21T10:45:18;101274.63;;;15.66;64.20
62694;BME280;48759;52.544;13.418;2023-04-21T10:47:51;101266.09;;;15.86;63.23
62694;BME280;48759;52.544;13.418;2023-04-21T10:50:29;101259.13;;;15.77;63.15
62694;BME280;48759;52.544;13.418;2023-04-21T10:52:59;101257.09;;;15.91;62.24
62694;BME280;48759;52.544;13.418;2023-04-21T10:55:33;101261.53;;;15.92;65.80
62694;BME280;48759;52.544;13.418;2023-04-21T10:58:02;101253.38;;;16.15;69.58
62694;BME280;48759;52.544;13.418;2023-04-21T11:00:32;101249.81;;;16.33;63.43
62694;BME280;48759;52.544;13.418;2023-04-21T11:03:02;101249.44;;;16.29;60.32
62694;BME280;48759;52.544;13.418;2023-04-21T11:05:33;101243.78;;;16.36;59.82
62694;BME280;48759;52.544;13.418;2023-04-21T11:08:04;101241.66;;;16.38;62.25
62694;BME280;48759;52.544;13.418;2023-04-21T11:10:52;101239.13;;;16.66;57.75
62694;BME280;48759;52.544;13.418;2023-04-21T11:13:21;101235.84;;;16.21;56.29
62694;BME280;48759;52.544;13.418;2023-04-21T11:16:00;101227.19;;;16.48;55.33
62694;BME280;48759;52.544;13.418;2023-04-21T11:18:38;101219.88;;;16.35;55.99
62694;BME280;48759;52.544;13.418;2023-04-21T11:21:15;101221.94;;;16.39;57.14
62694;BME280;48759;52.544;13.418;2023-04-21T11:23:49;101231.56;;;16.55;58.77
62694;BME280;48759;52.544;13.418;2023-04-21T11:26:17;101221.38;;;16.49;56.84
62694;BME280;48759;52.544;13.418;2023-04-21T11:28:47;101209.69;;;16.29;55.72
62694;BME280;48759;52.544;13.418;2023-04-21T11:31:16;101215.38;;;16.52;56.38
62694;BME280;48759;52.544;13.418;2023-04-21T11:33:43;101224.50;;;16.71;55.24
62694;BME280;48759;52.544;13.418;2023-04-21T11:36:13;101207.72;;;16.77;55.48
62694;BME280;48759;52.544;13.418;2023-04-21T11:38:40;101210.94;;;16.93;56.67
62694;BME280;48759;52.544;13.418;2023-04-21T11:41:08;101206.41;;;17.10;55.04
62694;BME280;48759;52.544;13.418;2023-04-21T11:43:35;101209.25;;;16.92;51.02
62694;BME280;48759;52.544;13.418;2023-04-21T11:46:22;101215.28;;;16.89;50.68
62694;BME280;48759;52.544;13.418;2023-04-21T11:48:57;101208.75;;;16.95;51.23
62694;BME280;48759;52.544;13.418;2023-04-21T11:51:31;101202.47;;;16.88;47.71
62694;BME280;48759;52.544;13.418;2023-04-21T11:53:58;101200.13;;;17.03;48.41
62694;BME280;48759;52.544;13.418;2023-04-21T11:56:25;101190.22;;;17.07;48.99
62694;BME280;48759;52.544;13.418;2023-04-21T11:59:00;101191.47;;;17.34;47.79
62694;BME280;48759;52.544;13.418;2023-04-21T12:01:29;101196.47;;;17.55;47.07
62694;BME280;48759;52.544;13.418;2023-04-21T12:03:56;101197.78;;;17.65;47.72
62694;BME280;48759;52.544;13.418;2023-04-21T12:06:25;101184.22;;;17.56;45.31
62694;BME280;48759;52.544;13.418;2023-04-21T12:08:55;101178.19;;;17.71;45.98
62694;BME280;48759;52.544;13.418;2023-04-21T12:11:23;101194.91;;;17.83;46.31
62694;BME280;48759;52.544;13.418;2023-04-21T12:13:50;101178.53;;;17.98;46.38
62694;BME280;48759;52.544;13.418;2023-04-21T12:16:17;101192.06;;;18.18;44.40
62694;BME280;48759;52.544;13.418;2023-04-21T12:18:47;101179.00;;;18.47;41.13
62694;BME280;48759;52.544;13.418;2023-04-21T12:21:14;101189.69;;;18.50;41.20
62694;BME280;48759;52.544;13.418;2023-04-21T12:23:41;101180.50;;;18.38;41.26
62694;BME280;48759;52.544;13.418;2023-04-21T12:26:09;101169.88;;;18.11;42.60
62694;BME280;48759;52.544;13.418;2023-04-21T12:28:36;101171.75;;;17.71;43.90
62694;BME280;48759;52.544;13.418;2023-04-21T12:31:03;101173.84;;;17.64;52.03
62694;BME280;48759;52.544;13.418;2023-04-21T12:33:30;101163.66;;;17.81;50.23
62694;BME280;48759;52.544;13.418;2023-04-21T12:35:58;101179.47;;;18.04;49.30
62694;BME280;48759;52.544;13.418;2023-04-21T12:38:25;101158.63;;;18.18;42.90
62694;BME280;48759;52.544;13.418;2023-04-21T12:40:52;101161.44;;;18.06;43.18
62694;BME280;48759;52.544;13.418;2023-04-21T12:43:18;101164.06;;;18.24;44.61
62694;BME280;48759;52.544;13.418;2023-04-21T12:45:45;101159.19;;;18.31;45.97
62694;BME280;48759;52.544;13.418;2023-04-21T12:48:12;101164.28;;;18.34;43.49
62694;BME280;48759;52.544;13.418;2023-04-21T12:50:39;101164.28;;;18.34;41.86
62694;BME280;48759;52.544;13.418;2023-04-21T12:53:07;101149.34;;;18.41;43.58